Time;durP1;ratioP1;P1;durP2;ratioP2;P2;SDS_P1;SDS_P2;PMS_P1;PMS_P2;Temp;Humidity;BMP_temperature;BMP_pressure;BME280_temperature;BME280_humidity;BME280_pressure;Samples;Min_cycle;Max_cycle;Signal;HPM_P1;HPM_P2
2022/02/28 00:00:58;;;;;;;50.47;20.90;;;;;;;;;;4969585;28;20089;-77
2022/02/28 00:03:24;;;;;;;55.90;21.65;;;;;;;;;;4971285;28;20483;-77
2022/02/28 00:05:49;;;;;;;48.80;21.45;;;;;;;;;;4963287;28;20045;-77
2022/02/28 00:08:15;;;;;;;54.83;23.02;;;;;;;;;;4955528;28;20070;-77
2022/02/28 00:10:41;;;;;;;58.65;22.45;;;;;;;;;;4956923;28;20443;-77
2022/02/28 00:13:07;;;;;;;64.05;24.70;;;;;;;;;;4981831;28;20773;-77
2022/02/28 00:15:32;;;;;;;53.90;23.92;;;;;;;;;;4964811;28;20101;-77
2022/02/28 00:17:58;;;;;;;60.42;24.45;;;;;;;;;;5012377;28;20065;-77
2022/02/28 00:20:25;;;;;;;63.13;25.02;;;;;;;;;;4978442;28;20431;-77
2022/02/28 00:22:51;;;;;;;62.63;24.58;;;;;;;;;;4946334;28;20039;-77
2022/02/28 00:25:17;;;;;;;62.40;25.25;;;;;;;;;;4960596;28;20050;-77
2022/02/28 00:27:44;;;;;;;68.85;27.25;;;;;;;;;;4967935;28;20031;-77
2022/02/28 00:30:11;;;;;;;63.83;23.92;;;;;;;;;;4967012;28;20042;-77
2022/02/28 00:32:37;;;;;;;71.30;26.30;;;;;;;;;;4959029;28;20038;-77
2022/02/28 00:35:04;;;;;;;69.00;26.83;;;;;;;;;;4955573;28;20529;-77
2022/02/28 00:37:30;;;;;;;67.30;27.15;;;;;;;;;;4977171;28;20348;-77
2022/02/28 00:39:56;;;;;;;67.05;25.60;;;;;;;;;;4967096;28;20044;-77
2022/02/28 00:42:22;;;;;;;62.70;26.23;;;;;;;;;;4961718;28;20034;-77
2022/02/28 00:44:49;;;;;;;71.70;27.13;;;;;;;;;;4982621;28;20070;-77
2022/02/28 00:47:15;;;;;;;62.15;24.70;;;;;;;;;;4966080;28;20042;-77
2022/02/28 00:49:41;;;;;;;59.05;25.50;;;;;;;;;;4969487;28;20547;-77
2022/02/28 00:52:07;;;;;;;60.85;24.25;;;;;;;;;;4935357;28;20043;-77
2022/02/28 00:54:36;;;;;;;59.03;24.17;;;;;;;;;;4958115;28;20459;-77
2022/02/28 00:57:01;;;;;;;61.65;25.50;;;;;;;;;;4966656;28;20062;-77
2022/02/28 00:59:27;;;;;;;56.72;24.38;;;;;;;;;;4965328;28;20034;-77
2022/02/28 01:01:53;;;;;;;57.88;25.55;;;;;;;;;;4973083;28;20045;-77
2022/02/28 01:04:19;;;;;;;65.60;25.65;;;;;;;;;;4966190;28;20359;-77
2022/02/28 01:06:45;;;;;;;62.17;24.85;;;;;;;;;;4970749;28;20225;-77
2022/02/28 01:09:11;;;;;;;56.22;23.77;;;;;;;;;;4981952;28;20384;-77
2022/02/28 01:11:38;;;;;;;54.17;22.70;;;;;;;;;;4962286;28;20268;-77
2022/02/28 01:14:04;;;;;;;50.35;22.15;;;;;;;;;;4964158;28;20166;-77
2022/02/28 01:16:30;;;;;;;52.60;21.95;;;;;;;;;;4971817;28;20043;-77
2022/02/28 01:18:56;;;;;;;48.63;20.67;;;;;;;;;;4960816;28;20374;-77
2022/02/28 01:21:22;;;;;;;45.22;22.42;;;;;;;;;;4981933;28;20162;-77
2022/02/28 01:23:50;;;;;;;44.90;20.77;;;;;;;;;;4962664;28;20443;-77
2022/02/28 01:26:16;;;;;;;40.92;17.92;;;;;;;;;;4945312;28;20039;-77
2022/02/28 01:28:41;;;;;;;42.33;19.42;;;;;;;;;;4979060;28;20062;-77
2022/02/28 01:31:07;;;;;;;41.30;19.08;;;;;;;;;;4954017;28;20057;-77
2022/02/28 01:33:34;;;;;;;46.35;19.98;;;;;;;;;;4961559;28;20327;-77
2022/02/28 01:36:01;;;;;;;43.17;19.17;;;;;;;;;;4965453;28;20124;-77
2022/02/28 01:38:27;;;;;;;39.85;18.58;;;;;;;;;;4982692;28;20125;-77
2022/02/28 01:40:53;;;;;;;45.72;20.00;;;;;;;;;;4974549;28;20045;-77
2022/02/28 01:43:18;;;;;;;44.42;19.02;;;;;;;;;;4967666;28;20495;-77
2022/02/28 01:45:44;;;;;;;46.08;19.35;;;;;;;;;;4963208;28;20047;-77
2022/02/28 01:48:10;;;;;;;45.80;20.08;;;;;;;;;;4981167;28;20056;-77
2022/02/28 01:50:36;;;;;;;51.72;21.20;;;;;;;;;;4985989;28;20403;-77
2022/02/28 01:53:04;;;;;;;47.22;20.27;;;;;;;;;;4966496;28;20034;-77
2022/02/28 01:55:30;;;;;;;47.15;20.65;;;;;;;;;;4975427;28;20365;-77
2022/02/28 01:57:56;;;;;;;46.38;19.80;;;;;;;;;;4985089;28;20438;-77
2022/02/28 02:00:28;;;;;;;43.33;18.67;;;;;;;;;;4975923;28;20045;-77
2022/02/28 02:02:54;;;;;;;45.47;18.42;;;;;;;;;;4952358;28;20548;-77
2022/02/28 02:05:19;;;;;;;43.25;19.30;;;;;;;;;;4970755;28;20062;-77
2022/02/28 02:07:47;;;;;;;44.25;19.08;;;;;;;;;;4981929;28;20034;-77
2022/02/28 02:10:13;;;;;;;43.58;19.05;;;;;;;;;;4984463;28;20495;-77
2022/02/28 02:12:40;;;;;;;45.08;20.05;;;;;;;;;;4983592;28;20034;-77
2022/02/28 02:15:10;;;;;;;41.95;19.15;;;;;;;;;;4967332;28;20134;-77
2022/02/28 02:17:37;;;;;;;39.22;18.10;;;;;;;;;;4948585;28;20227;-77
2022/02/28 02:20:08;;;;;;;43.33;18.73;;;;;;;;;;4951363;28;20093;-77
2022/02/28 02:22:34;;;;;;;38.95;18.48;;;;;;;;;;4956684;28;20049;-77
2022/02/28 02:25:00;;;;;;;39.25;19.20;;;;;;;;;;4960284;28;20039;-77
2022/02/28 02:27:26;;;;;;;36.67;17.38;;;;;;;;;;4970559;28;20161;-77
2022/02/28 02:29:52;;;;;;;36.42;17.35;;;;;;;;;;4948750;28;20504;-77
2022/02/28 02:32:20;;;;;;;35.85;16.15;;;;;;;;;;4968242;28;20333;-77
2022/02/28 02:34:46;;;;;;;36.10;15.93;;;;;;;;;;4952179;28;20047;-77
2022/02/28 02:37:13;;;;;;;35.88;17.05;;;;;;;;;;4955849;28;20060;-77
2022/02/28 02:39:40;;;;;;;34.45;16.45;;;;;;;;;;4960237;28;20043;-77
2022/02/28 02:42:06;;;;;;;32.38;15.98;;;;;;;;;;4961319;28;20224;-77
2022/02/28 02:44:33;;;;;;;38.05;18.60;;;;;;;;;;4970790;28;20337;-77
2022/02/28 02:46:59;;;;;;;35.20;17.98;;;;;;;;;;4950718;28;20539;-77
2022/02/28 02:49:25;;;;;;;31.88;16.08;;;;;;;;;;4967432;28;20043;-77
2022/02/28 02:51:51;;;;;;;30.17;15.05;;;;;;;;;;4970622;28;20034;-77
2022/02/28 02:54:17;;;;;;;34.15;15.30;;;;;;;;;;4950746;28;20185;-77
2022/02/28 02:56:43;;;;;;;29.33;14.38;;;;;;;;;;4948993;28;20046;-77
2022/02/28 02:59:10;;;;;;;30.98;14.38;;;;;;;;;;4979747;28;20097;-77
2022/02/28 03:01:36;;;;;;;28.23;14.93;;;;;;;;;;4979850;28;20034;-77
2022/02/28 03:04:03;;;;;;;30.13;14.35;;;;;;;;;;4953076;28;20570;-78
2022/02/28 03:06:28;;;;;;;33.15;15.52;;;;;;;;;;5000427;28;20050;-78
2022/02/28 03:08:54;;;;;;;30.75;15.38;;;;;;;;;;4959458;28;20611;-78
2022/02/28 03:11:21;;;;;;;31.63;14.77;;;;;;;;;;4972590;28;20057;-78
2022/02/28 03:13:47;;;;;;;28.30;13.95;;;;;;;;;;4967487;28;20038;-79
2022/02/28 03:16:13;;;;;;;28.40;13.60;;;;;;;;;;4955895;28;20768;-79
2022/02/28 03:18:38;;;;;;;27.55;13.40;;;;;;;;;;4970309;28;20043;-79
2022/02/28 03:21:04;;;;;;;27.92;13.60;;;;;;;;;;4970081;28;20038;-79
2022/02/28 03:23:33;;;;;;;33.65;14.95;;;;;;;;;;4985801;28;20085;-79
2022/02/28 03:25:58;;;;;;;30.45;15.27;;;;;;;;;;4986987;28;20068;-79
2022/02/28 03:28:24;;;;;;;29.20;15.73;;;;;;;;;;4970155;28;20261;-79
2022/02/28 03:30:51;;;;;;;32.70;14.57;;;;;;;;;;4969710;28;20034;-79
2022/02/28 03:33:17;;;;;;;27.63;14.02;;;;;;;;;;4968935;28;20138;-79
2022/02/28 03:35:42;;;;;;;33.45;15.38;;;;;;;;;;4980102;28;20097;-79
2022/02/28 03:38:08;;;;;;;31.95;15.23;;;;;;;;;;4969704;28;20543;-79
2022/02/28 03:40:34;;;;;;;29.30;14.75;;;;;;;;;;4962527;28;20049;-79
2022/02/28 03:43:05;;;;;;;29.77;14.52;;;;;;;;;;4968057;28;20042;-79
2022/02/28 03:45:32;;;;;;;31.63;14.57;;;;;;;;;;4968012;28;20057;-79
2022/02/28 03:47:59;;;;;;;27.92;15.23;;;;;;;;;;4963940;28;20039;-79
2022/02/28 03:50:26;;;;;;;30.40;14.73;;;;;;;;;;4971362;28;20065;-79
2022/02/28 03:52:53;;;;;;;30.35;14.82;;;;;;;;;;4978658;28;20039;-79
2022/02/28 03:55:19;;;;;;;33.05;15.23;;;;;;;;;;4973088;28;20044;-79
2022/02/28 03:57:46;;;;;;;31.95;15.90;;;;;;;;;;4972443;28;20106;-79
2022/02/28 04:00:13;;;;;;;32.28;15.68;;;;;;;;;;4979774;28;20066;-79
2022/02/28 04:02:38;;;;;;;31.40;15.70;;;;;;;;;;4973368;28;20035;-79
2022/02/28 04:05:05;;;;;;;33.42;15.63;;;;;;;;;;4981744;28;20109;-79
2022/02/28 04:07:32;;;;;;;32.10;15.95;;;;;;;;;;4976817;28;20042;-79
2022/02/28 04:09:58;;;;;;;37.03;17.35;;;;;;;;;;4978351;28;20043;-79
2022/02/28 04:12:24;;;;;;;34.83;15.75;;;;;;;;;;4977887;28;20038;-79
2022/02/28 04:14:51;;;;;;;33.63;15.60;;;;;;;;;;4983643;28;20105;-79
2022/02/28 04:17:17;;;;;;;31.95;14.95;;;;;;;;;;4954351;28;20430;-79
2022/02/28 04:19:43;;;;;;;31.80;14.57;;;;;;;;;;4974151;28;20130;-79
2022/02/28 04:22:09;;;;;;;36.72;17.00;;;;;;;;;;4971122;28;20042;-79
2022/02/28 04:24:36;;;;;;;36.05;17.33;;;;;;;;;;4949255;28;20437;-79
2022/02/28 04:27:02;;;;;;;32.78;16.35;;;;;;;;;;4970703;28;20046;-79
2022/02/28 04:29:29;;;;;;;33.78;15.98;;;;;;;;;;4976663;28;20053;-79
2022/02/28 04:31:55;;;;;;;34.03;16.58;;;;;;;;;;4984960;28;20038;-79
2022/02/28 04:34:21;;;;;;;33.30;15.90;;;;;;;;;;4958556;28;20034;-79
2022/02/28 04:36:47;;;;;;;35.65;16.23;;;;;;;;;;4970814;28;20065;-79
2022/02/28 04:39:12;;;;;;;31.27;15.93;;;;;;;;;;4985629;28;20369;-79
2022/02/28 04:41:38;;;;;;;32.78;15.65;;;;;;;;;;4968257;28;20038;-79
2022/02/28 04:44:04;;;;;;;33.17;16.25;;;;;;;;;;4992338;28;20038;-79
2022/02/28 04:46:30;;;;;;;35.70;15.60;;;;;;;;;;4992755;28;20046;-79
2022/02/28 04:48:56;;;;;;;30.73;16.48;;;;;;;;;;4966163;28;20491;-79
2022/02/28 04:51:22;;;;;;;32.08;16.15;;;;;;;;;;4986842;28;20419;-79
2022/02/28 04:53:47;;;;;;;37.55;17.38;;;;;;;;;;4986341;28;20554;-79
2022/02/28 04:56:13;;;;;;;34.20;15.77;;;;;;;;;;4986180;28;20117;-79
2022/02/28 04:58:39;;;;;;;36.45;16.52;;;;;;;;;;4966266;28;20149;-81
2022/02/28 05:01:05;;;;;;;36.05;16.88;;;;;;;;;;4952373;28;20043;-80
2022/02/28 05:03:30;;;;;;;33.05;17.27;;;;;;;;;;4965982;28;20125;-80
2022/02/28 05:05:56;;;;;;;37.03;16.77;;;;;;;;;;4986040;28;20058;-80
2022/02/28 05:08:24;;;;;;;37.30;16.98;;;;;;;;;;4961744;28;20347;-80
2022/02/28 05:10:51;;;;;;;35.22;16.55;;;;;;;;;;4949450;28;20043;-80
2022/02/28 05:13:16;;;;;;;32.55;15.43;;;;;;;;;;4980514;28;20504;-80
2022/02/28 05:15:43;;;;;;;35.90;16.75;;;;;;;;;;4948098;28;20456;-80
2022/02/28 05:18:08;;;;;;;37.03;17.85;;;;;;;;;;4981825;28;20051;-80
2022/02/28 05:20:34;;;;;;;37.08;16.73;;;;;;;;;;4984664;28;20523;-80
2022/02/28 05:23:00;;;;;;;34.88;17.73;;;;;;;;;;4970412;28;20069;-80
2022/02/28 05:25:26;;;;;;;34.95;16.02;;;;;;;;;;4975482;28;20069;-80
2022/02/28 05:27:52;;;;;;;32.42;16.67;;;;;;;;;;4971959;28;20038;-80
2022/02/28 05:30:18;;;;;;;31.67;15.77;;;;;;;;;;4964464;28;20046;-80
2022/02/28 05:32:44;;;;;;;34.17;17.35;;;;;;;;;;4972014;28;20046;-80
2022/02/28 05:35:11;;;;;;;34.95;18.02;;;;;;;;;;4960131;28;20074;-79
2022/02/28 05:37:38;;;;;;;36.95;18.45;;;;;;;;;;4953818;28;20470;-79
2022/02/28 05:40:05;;;;;;;38.03;18.92;;;;;;;;;;4955295;28;20039;-79
2022/02/28 05:42:30;;;;;;;31.13;15.90;;;;;;;;;;4975204;28;20040;-79
2022/02/28 05:44:56;;;;;;;41.50;19.92;;;;;;;;;;4989417;28;20570;-79
2022/02/28 05:47:22;;;;;;;39.90;18.17;;;;;;;;;;4973321;28;20449;-78
2022/02/28 05:49:48;;;;;;;36.25;18.30;;;;;;;;;;4958374;28;20066;-79
2022/02/28 05:52:13;;;;;;;40.03;18.35;;;;;;;;;;4975859;28;20047;-80
2022/02/28 05:54:39;;;;;;;37.00;19.30;;;;;;;;;;4956478;28;20038;-80
2022/02/28 05:57:05;;;;;;;42.83;19.65;;;;;;;;;;4955470;28;20053;-79
2022/02/28 05:59:31;;;;;;;42.63;20.52;;;;;;;;;;4966034;28;20101;-79
2022/02/28 06:01:57;;;;;;;36.95;18.88;;;;;;;;;;4985820;28;20267;-79
2022/02/28 06:04:23;;;;;;;40.63;19.55;;;;;;;;;;4985506;28;20098;-79
2022/02/28 06:06:48;;;;;;;36.83;18.08;;;;;;;;;;4986223;28;20047;-79
2022/02/28 06:09:14;;;;;;;38.33;18.42;;;;;;;;;;4965138;28;20050;-79
2022/02/28 06:11:40;;;;;;;38.22;18.27;;;;;;;;;;4969532;28;20129;-79
2022/02/28 06:14:06;;;;;;;39.72;17.33;;;;;;;;;;4961447;28;20072;-79
2022/02/28 06:16:31;;;;;;;37.22;17.98;;;;;;;;;;4971156;28;20546;-80
2022/02/28 06:18:57;;;;;;;42.40;19.38;;;;;;;;;;4963203;28;20053;-79
2022/02/28 06:21:23;;;;;;;39.67;18.70;;;;;;;;;;4953139;28;20038;-80
2022/02/28 06:23:48;;;;;;;41.30;20.20;;;;;;;;;;4967516;28;20062;-80
2022/02/28 06:26:14;;;;;;;43.17;20.42;;;;;;;;;;4989381;28;20046;-81
2022/02/28 06:28:40;;;;;;;46.45;21.05;;;;;;;;;;4965509;28;20118;-80
2022/02/28 06:31:06;;;;;;;39.63;20.45;;;;;;;;;;4961387;28;20145;-80
2022/02/28 06:33:32;;;;;;;45.38;20.55;;;;;;;;;;4970741;28;20038;-80
2022/02/28 06:35:58;;;;;;;51.05;21.70;;;;;;;;;;4963533;28;20404;-80
2022/02/28 06:38:26;;;;;;;51.50;21.88;;;;;;;;;;4959878;28;20130;-81
2022/02/28 06:40:51;;;;;;;45.97;20.95;;;;;;;;;;4956003;28;20046;-81
2022/02/28 06:43:20;;;;;;;44.03;21.45;;;;;;;;;;4957770;28;20824;-81
2022/02/28 06:45:47;;;;;;;48.13;20.08;;;;;;;;;;4979068;28;20041;-80
2022/02/28 06:48:13;;;;;;;48.22;22.15;;;;;;;;;;4955284;28;20495;-80
2022/02/28 06:50:39;;;;;;;44.42;21.15;;;;;;;;;;4970617;28;20106;-80
2022/02/28 06:53:04;;;;;;;44.55;20.20;;;;;;;;;;4968229;28;20491;-81
2022/02/28 06:55:30;;;;;;;44.00;20.73;;;;;;;;;;4956351;28;20043;-79
2022/02/28 06:57:56;;;;;;;47.30;21.95;;;;;;;;;;4975258;28;20067;-80
2022/02/28 07:00:22;;;;;;;43.17;21.00;;;;;;;;;;4993565;28;20126;-80
2022/02/28 07:02:48;;;;;;;46.97;21.02;;;;;;;;;;4952706;28;20042;-80
2022/02/28 07:05:14;;;;;;;42.65;19.58;;;;;;;;;;4975488;28;20129;-80
2022/02/28 07:07:40;;;;;;;44.00;20.98;;;;;;;;;;4958915;28;20415;-80
2022/02/28 07:10:11;;;;;;;42.72;21.10;;;;;;;;;;4952762;28;20523;-80
2022/02/28 07:12:36;;;;;;;50.70;24.02;;;;;;;;;;4979659;28;20035;-80
2022/02/28 07:15:03;;;;;;;40.17;21.63;;;;;;;;;;4967546;28;20061;-80
2022/02/28 07:17:29;;;;;;;40.22;21.38;;;;;;;;;;4984474;28;20069;-80
2022/02/28 07:19:55;;;;;;;39.85;19.33;;;;;;;;;;4966481;28;20062;-79
2022/02/28 07:22:20;;;;;;;39.83;21.15;;;;;;;;;;4977408;28;20054;-79
2022/02/28 07:24:46;;;;;;;39.08;19.42;;;;;;;;;;4955655;28;20693;-80
2022/02/28 07:27:12;;;;;;;41.90;19.10;;;;;;;;;;4972949;28;20049;-79
2022/02/28 07:29:37;;;;;;;36.42;19.38;;;;;;;;;;4979038;28;20499;-81
2022/02/28 07:32:04;;;;;;;41.28;21.15;;;;;;;;;;4977188;28;20046;-81
2022/02/28 07:34:29;;;;;;;40.03;18.92;;;;;;;;;;4949921;28;20373;-81
2022/02/28 07:36:55;;;;;;;36.00;17.17;;;;;;;;;;4972571;28;20042;-81
2022/02/28 07:39:21;;;;;;;33.88;17.65;;;;;;;;;;4975988;28;20039;-80
2022/02/28 07:41:47;;;;;;;36.72;18.48;;;;;;;;;;4968223;28;20042;-80
2022/02/28 07:44:14;;;;;;;39.22;18.88;;;;;;;;;;4977859;28;20596;-80
2022/02/28 07:46:41;;;;;;;42.33;19.05;;;;;;;;;;4964604;28;20319;-80
2022/02/28 07:49:06;;;;;;;35.97;18.33;;;;;;;;;;4949052;28;20333;-80
2022/02/28 07:51:32;;;;;;;38.13;18.25;;;;;;;;;;4950425;28;20573;-80
2022/02/28 07:53:58;;;;;;;38.33;18.85;;;;;;;;;;4984742;28;20042;-80
2022/02/28 07:56:23;;;;;;;36.03;19.27;;;;;;;;;;4953534;28;20059;-80
2022/02/28 07:58:49;;;;;;;36.70;19.35;;;;;;;;;;4977835;28;20165;-79
2022/02/28 08:01:15;;;;;;;40.08;20.20;;;;;;;;;;4961772;28;20097;-80
2022/02/28 08:03:41;;;;;;;42.30;20.55;;;;;;;;;;4947729;28;20464;-82
2022/02/28 08:06:06;;;;;;;42.65;20.58;;;;;;;;;;4954694;28;20074;-79
2022/02/28 08:08:33;;;;;;;40.17;19.15;;;;;;;;;;4960584;28;20062;-80
2022/02/28 08:11:03;;;;;;;34.13;17.83;;;;;;;;;;4966756;28;20035;-80
2022/02/28 08:13:29;;;;;;;36.70;16.65;;;;;;;;;;4965467;28;20093;-81
2022/02/28 08:15:56;;;;;;;35.97;18.05;;;;;;;;;;4968131;28;20039;-80
2022/02/28 08:18:22;;;;;;;32.67;18.10;;;;;;;;;;4968511;28;20055;-80
2022/02/28 08:20:48;;;;;;;35.58;18.55;;;;;;;;;;4982347;28;20777;-80
2022/02/28 08:23:14;;;;;;;36.17;17.85;;;;;;;;;;4956963;28;20412;-80
2022/02/28 08:25:44;;;;;;;34.55;16.92;;;;;;;;;;4954815;28;20132;-80
2022/02/28 08:28:10;;;;;;;31.80;16.60;;;;;;;;;;4951566;28;20735;-80
2022/02/28 08:30:36;;;;;;;35.53;18.30;;;;;;;;;;4951315;28;20515;-80
2022/02/28 08:33:02;;;;;;;32.25;16.52;;;;;;;;;;4959236;28;20089;-83
2022/02/28 08:35:27;;;;;;;31.58;16.75;;;;;;;;;;4978228;28;20506;-80
2022/02/28 08:37:53;;;;;;;38.70;17.65;;;;;;;;;;4960344;28;20684;-80
2022/02/28 08:40:19;;;;;;;35.25;18.05;;;;;;;;;;4963761;28;20442;-80
2022/02/28 08:42:45;;;;;;;37.10;17.77;;;;;;;;;;4963949;28;20050;-80
2022/02/28 08:45:11;;;;;;;38.08;17.33;;;;;;;;;;4980618;28;20057;-80
2022/02/28 08:47:37;;;;;;;33.15;17.90;;;;;;;;;;4967590;28;20062;-81
2022/02/28 08:50:04;;;;;;;31.67;17.02;;;;;;;;;;4970969;28;20485;-80
2022/02/28 08:52:32;;;;;;;32.80;17.40;;;;;;;;;;4968118;28;20055;-80
2022/02/28 08:54:58;;;;;;;34.90;17.77;;;;;;;;;;4954274;28;20050;-80
2022/02/28 08:57:23;;;;;;;34.58;17.50;;;;;;;;;;4959478;28;20038;-81
2022/02/28 08:59:49;;;;;;;32.38;16.52;;;;;;;;;;4954132;28;20067;-80
2022/02/28 09:02:15;;;;;;;28.58;15.02;;;;;;;;;;4963055;28;20066;-79
2022/02/28 09:04:41;;;;;;;30.17;15.82;;;;;;;;;;4968827;28;20058;-80
2022/02/28 09:07:06;;;;;;;32.33;16.15;;;;;;;;;;4985574;28;20062;-79
2022/02/28 09:09:32;;;;;;;29.98;16.90;;;;;;;;;;4981524;28;20093;-79
2022/02/28 09:11:58;;;;;;;30.35;16.33;;;;;;;;;;4968236;28;20042;-81
2022/02/28 09:14:23;;;;;;;31.65;16.80;;;;;;;;;;4986543;28;20039;-80
2022/02/28 09:16:49;;;;;;;27.92;16.08;;;;;;;;;;4985332;28;20073;-80
2022/02/28 09:19:15;;;;;;;32.15;17.75;;;;;;;;;;4981979;28;20519;-80
2022/02/28 09:21:40;;;;;;;38.13;18.80;;;;;;;;;;4970561;28;20046;-79
2022/02/28 09:24:06;;;;;;;30.90;16.45;;;;;;;;;;4976245;28;20120;-80
2022/02/28 09:26:32;;;;;;;35.60;20.73;;;;;;;;;;4965665;28;20117;-79
2022/02/28 09:28:58;;;;;;;33.13;19.38;;;;;;;;;;4964042;28;20427;-79
2022/02/28 09:31:24;;;;;;;32.10;17.83;;;;;;;;;;4972889;28;20747;-80
2022/02/28 09:33:49;;;;;;;29.90;16.75;;;;;;;;;;4984971;28;20042;-80
2022/02/28 09:36:15;;;;;;;30.00;16.35;;;;;;;;;;4978593;28;20069;-80
2022/02/28 09:38:41;;;;;;;27.50;16.60;;;;;;;;;;4949187;28;20046;-80
2022/02/28 09:41:10;;;;;;;28.00;16.52;;;;;;;;;;4964492;28;20051;-80
2022/02/28 09:43:36;;;;;;;26.95;16.58;;;;;;;;;;4968459;28;20109;-80
2022/02/28 09:46:03;;;;;;;33.67;17.85;;;;;;;;;;4964889;28;20038;-80
2022/02/28 09:48:32;;;;;;;29.98;17.02;;;;;;;;;;4970017;28;20419;-80
2022/02/28 09:50:58;;;;;;;30.60;17.02;;;;;;;;;;4982753;28;20054;-80
2022/02/28 09:53:24;;;;;;;32.75;17.88;;;;;;;;;;4968527;28;20038;-80
2022/02/28 09:55:49;;;;;;;27.20;15.77;;;;;;;;;;4968620;28;20062;-80
2022/02/28 09:58:15;;;;;;;27.15;16.17;;;;;;;;;;4984610;28;20571;-79
2022/02/28 10:00:43;;;;;;;27.95;15.10;;;;;;;;;;4966312;28;20138;-80
2022/02/28 10:03:09;;;;;;;28.73;16.98;;;;;;;;;;4959285;28;20050;-80
2022/02/28 10:05:35;;;;;;;30.70;17.13;;;;;;;;;;4965803;28;20046;-80
2022/02/28 10:08:06;;;;;;;28.25;16.17;;;;;;;;;;4972315;28;20046;-80
2022/02/28 10:10:34;;;;;;;28.35;16.90;;;;;;;;;;4980564;28;20092;-80
2022/02/28 10:13:00;;;;;;;24.83;16.42;;;;;;;;;;4970717;28;20038;-81
2022/02/28 10:15:27;;;;;;;24.70;14.85;;;;;;;;;;4985874;28;20061;-80
2022/02/28 10:17:54;;;;;;;28.63;16.70;;;;;;;;;;4986466;28;20730;-80
2022/02/28 10:20:35;;;;;;;27.65;17.30;;;;;;;;;;4987706;28;20042;-80
2022/02/28 10:23:03;;;;;;;23.20;16.00;;;;;;;;;;4968421;28;20050;-82
2022/02/28 10:25:38;;;;;;;25.52;17.05;;;;;;;;;;4951118;28;20043;-82
2022/02/28 10:28:13;;;;;;;24.67;16.40;;;;;;;;;;4987058;28;20042;-81
2022/02/28 10:30:52;;;;;;;24.13;16.55;;;;;;;;;;4981740;28;20157;-81
2022/02/28 10:33:17;;;;;;;25.77;17.23;;;;;;;;;;4972870;28;20487;-80
2022/02/28 10:36:01;;;;;;;26.35;18.17;;;;;;;;;;4965193;28;20089;-80
2022/02/28 10:38:32;;;;;;;24.48;18.63;;;;;;;;;;4982943;28;20529;-80
2022/02/28 10:40:58;;;;;;;25.90;19.52;;;;;;;;;;4959838;28;20065;-82
2022/02/28 10:43:29;;;;;;;25.42;17.73;;;;;;;;;;4982719;28;20073;-81
2022/02/28 10:45:57;;;;;;;26.17;17.75;;;;;;;;;;4968394;28;20491;-81
2022/02/28 10:48:25;;;;;;;24.88;17.88;;;;;;;;;;4968852;28;20042;-81
2022/02/28 10:50:51;;;;;;;25.52;17.92;;;;;;;;;;4985231;28;20054;-81
2022/02/28 10:53:22;;;;;;;27.50;18.35;;;;;;;;;;4976725;28;20122;-81
2022/02/28 10:55:50;;;;;;;24.58;17.08;;;;;;;;;;4978670;28;20126;-82
2022/02/28 10:58:24;;;;;;;21.67;15.90;;;;;;;;;;4966039;28;20067;-80
2022/02/28 11:00:58;;;;;;;22.33;16.00;;;;;;;;;;4986065;28;20117;-81
2022/02/28 11:03:26;;;;;;;21.88;16.77;;;;;;;;;;4984126;28;20038;-80
2022/02/28 11:05:58;;;;;;;22.88;16.90;;;;;;;;;;4970112;28;20042;-83
2022/02/28 11:08:25;;;;;;;19.65;15.68;;;;;;;;;;4970835;28;20042;-83
2022/02/28 11:10:52;;;;;;;20.08;16.65;;;;;;;;;;4970536;28;20065;-83
2022/02/28 11:13:18;;;;;;;23.13;16.80;;;;;;;;;;4985335;28;20048;-83
2022/02/28 11:15:44;;;;;;;22.45;17.05;;;;;;;;;;4963947;28;20039;-83
2022/02/28 11:18:16;;;;;;;21.90;17.08;;;;;;;;;;4958677;28;20043;-83
2022/02/28 11:20:42;;;;;;;20.40;15.15;;;;;;;;;;4947232;28;20041;-83
2022/02/28 11:23:07;;;;;;;20.17;16.10;;;;;;;;;;4955377;28;20057;-82
2022/02/28 11:25:33;;;;;;;20.83;16.00;;;;;;;;;;4951892;28;20141;-82
2022/02/28 11:28:00;;;;;;;20.27;16.00;;;;;;;;;;4977599;28;20039;-82
2022/02/28 11:30:28;;;;;;;20.95;15.60;;;;;;;;;;4964232;28;20046;-84
2022/02/28 11:33:02;;;;;;;22.83;16.23;;;;;;;;;;4970392;28;20045;-82
2022/02/28 11:35:53;;;;;;;21.75;15.88;;;;;;;;;;4952112;28;20455;-82
2022/02/28 11:38:19;;;;;;;22.05;15.40;;;;;;;;;;5001825;28;20106;-82
2022/02/28 11:40:51;;;;;;;18.83;14.82;;;;;;;;;;4986115;28;20046;-82
2022/02/28 11:43:18;;;;;;;19.52;16.17;;;;;;;;;;4985670;28;20543;-83
2022/02/28 11:45:52;;;;;;;18.95;15.45;;;;;;;;;;4970337;28;20046;-83
2022/02/28 11:49:02;;;;;;;20.42;15.63;;;;;;;;;;4985691;28;20046;-83
2022/02/28 11:51:35;;;;;;;18.52;14.48;;;;;;;;;;4961308;28;20531;-83
2022/02/28 11:54:06;;;;;;;19.25;14.85;;;;;;;;;;4966563;28;20043;-80
2022/02/28 11:56:34;;;;;;;19.48;15.32;;;;;;;;;;4973795;28;20828;-80
2022/02/28 11:59:04;;;;;;;18.58;14.00;;;;;;;;;;4982710;28;20069;-80
2022/02/28 12:01:39;;;;;;;17.77;13.88;;;;;;;;;;4982033;28;20303;-79
2022/02/28 12:04:10;;;;;;;17.58;13.90;;;;;;;;;;4966591;28;20134;-81
2022/02/28 12:07:09;;;;;;;15.10;12.13;;;;;;;;;;4973006;28;20034;-80
2022/02/28 12:09:37;;;;;;;15.85;12.27;;;;;;;;;;4972414;28;20042;-81
2022/02/28 12:12:13;;;;;;;16.63;11.90;;;;;;;;;;4988814;28;20061;-80
2022/02/28 12:15:03;;;;;;;17.42;11.80;;;;;;;;;;4965079;28;20136;-80
2022/02/28 12:17:40;;;;;;;18.65;12.32;;;;;;;;;;4969030;28;20278;-79
2022/02/28 12:20:14;;;;;;;16.98;11.95;;;;;;;;;;4973629;28;20387;-79
2022/02/28 12:22:52;;;;;;;17.33;12.30;;;;;;;;;;4994200;28;20061;-79
2022/02/28 12:25:45;;;;;;;14.32;10.10;;;;;;;;;;4969533;28;20035;-78
2022/02/28 12:28:20;;;;;;;17.67;11.27;;;;;;;;;;4957086;28;20450;-79
2022/02/28 12:30:48;;;;;;;15.17;9.23;;;;;;;;;;5016586;28;20092;-80
2022/02/28 12:33:19;;;;;;;15.35;8.55;;;;;;;;;;4975669;28;20108;-81
2022/02/28 12:36:09;;;;;;;14.73;9.52;;;;;;;;;;4974542;28;20062;-79
2022/02/28 12:38:40;;;;;;;14.27;9.18;;;;;;;;;;4977243;28;20280;-80
2022/02/28 12:41:08;;;;;;;11.02;7.68;;;;;;;;;;4963216;28;20113;-81
2022/02/28 12:43:35;;;;;;;12.18;7.63;;;;;;;;;;4963200;28;20042;-81
2022/02/28 12:46:06;;;;;;;9.63;6.00;;;;;;;;;;4963021;28;20051;-81
2022/02/28 12:48:32;;;;;;;9.80;6.68;;;;;;;;;;4978567;28;20046;-82
2022/02/28 12:51:03;;;;;;;9.10;5.93;;;;;;;;;;4972085;28;20431;-81
2022/02/28 12:53:31;;;;;;;9.18;6.40;;;;;;;;;;4964981;28;20054;-80
2022/02/28 12:55:59;;;;;;;12.15;6.65;;;;;;;;;;4965676;28;20570;-80
2022/02/28 12:58:33;;;;;;;10.38;6.88;;;;;;;;;;4958465;28;20462;-80
2022/02/28 13:01:20;;;;;;;11.30;7.30;;;;;;;;;;4990238;28;20495;-81
2022/02/28 13:03:59;;;;;;;11.20;7.60;;;;;;;;;;4978336;28;20046;-81
2022/02/28 13:06:31;;;;;;;11.80;7.72;;;;;;;;;;4962229;28;20049;-81
2022/02/28 13:09:19;;;;;;;12.48;7.35;;;;;;;;;;4964201;28;20039;-80
2022/02/28 13:12:08;;;;;;;11.40;7.95;;;;;;;;;;4962805;28;20232;-81
2022/02/28 13:14:33;;;;;;;15.68;9.10;;;;;;;;;;4985374;28;20458;-81
2022/02/28 13:16:59;;;;;;;10.48;7.22;;;;;;;;;;4982260;28;20055;-80
2022/02/28 13:19:29;;;;;;;11.95;6.80;;;;;;;;;;4979432;28;20035;-80
2022/02/28 13:22:21;;;;;;;12.70;7.13;;;;;;;;;;4970984;28;20049;-80
2022/02/28 13:24:47;;;;;;;11.07;7.20;;;;;;;;;;4983607;28;20110;-81
2022/02/28 13:27:13;;;;;;;12.63;7.65;;;;;;;;;;4966314;28;20195;-81
2022/02/28 13:29:40;;;;;;;13.15;7.93;;;;;;;;;;4988681;28;20452;-80
2022/02/28 13:32:11;;;;;;;14.55;8.85;;;;;;;;;;4971365;28;20047;-80
2022/02/28 13:34:38;;;;;;;12.23;7.97;;;;;;;;;;4971449;28;20042;-81
2022/02/28 13:37:13;;;;;;;13.30;8.30;;;;;;;;;;4972988;28;20052;-82
2022/02/28 13:39:39;;;;;;;12.05;8.60;;;;;;;;;;4956994;28;20045;-80
2022/02/28 13:42:10;;;;;;;11.98;8.02;;;;;;;;;;4972633;28;20492;-81
2022/02/28 13:44:40;;;;;;;12.40;8.25;;;;;;;;;;4978270;28;20065;-81
2022/02/28 13:47:11;;;;;;;14.23;8.63;;;;;;;;;;4974027;28;20045;-81
2022/02/28 13:49:49;;;;;;;13.52;8.68;;;;;;;;;;4984148;28;20060;-80
2022/02/28 13:52:19;;;;;;;15.15;8.48;;;;;;;;;;4972738;28;20046;-81
2022/02/28 13:55:18;;;;;;;12.18;7.47;;;;;;;;;;4971485;28;20042;-81
2022/02/28 13:57:59;;;;;;;16.83;7.45;;;;;;;;;;4950575;28;20446;-79
2022/02/28 14:00:28;;;;;;;11.40;7.53;;;;;;;;;;4977142;28;20043;-81
2022/02/28 14:03:15;;;;;;;12.80;7.70;;;;;;;;;;4963781;28;20039;-80
2022/02/28 14:05:42;;;;;;;14.30;8.52;;;;;;;;;;4984061;28;20558;-81
2022/02/28 14:08:15;;;;;;;14.80;9.20;;;;;;;;;;4979707;28;20788;-82
2022/02/28 14:10:50;;;;;;;13.43;8.32;;;;;;;;;;4990847;28;20582;-81
2022/02/28 14:13:19;;;;;;;14.73;8.90;;;;;;;;;;4954938;28;20720;-81
2022/02/28 14:15:47;;;;;;;16.25;9.13;;;;;;;;;;4976477;28;20034;-80
2022/02/28 14:18:13;;;;;;;12.93;7.90;;;;;;;;;;4964696;28;20055;-80
2022/02/28 14:20:40;;;;;;;13.82;9.13;;;;;;;;;;4977581;28;20467;-81
2022/02/28 14:23:09;;;;;;;13.82;8.90;;;;;;;;;;4962579;28;20039;-81